sensor_id;sensor_type;location;lat;lon;timestamp;P1;durP1;ratioP1;P2;durP2;ratioP2
2658;SDS011;1339;53.304;10.406;2024-03-07T00:00:28;23.08;;;20.02;;
2658;SDS011;1339;53.304;10.406;2024-03-07T00:02:57;26.80;;;20.05;;
2658;SDS011;1339;53.304;10.406;2024-03-07T00:05:24;26.67;;;19.67;;
2658;SDS011;1339;53.304;10.406;2024-03-07T00:07:51;27.77;;;21.17;;
2658;SDS011;1339;53.304;10.406;2024-03-07T00:10:19;25.60;;;19.60;;
2658;SDS011;1339;53.304;10.406;2024-03-07T00:12:46;23.65;;;20.25;;
2658;SDS011;1339;53.304;10.406;2024-03-07T00:15:15;24.10;;;19.52;;
2658;SDS011;1339;53.304;10.406;2024-03-07T00:17:42;27.45;;;20.48;;
2658;SDS011;1339;53.304;10.406;2024-03-07T00:20:10;30.60;;;20.73;;
2658;SDS011;1339;53.304;10.406;2024-03-07T00:22:40;33.55;;;22.25;;
2658;SDS011;1339;53.304;10.406;2024-03-07T00:25:07;30.10;;;21.88;;
2658;SDS011;1339;53.304;10.406;2024-03-07T00:27:36;32.38;;;23.27;;
2658;SDS011;1339;53.304;10.406;2024-03-07T00:30:03;29.13;;;21.55;;
2658;SDS011;1339;53.304;10.406;2024-03-07T00:32:35;30.42;;;22.83;;
2658;SDS011;1339;53.304;10.406;2024-03-07T00:35:04;31.05;;;20.23;;
2658;SDS011;1339;53.304;10.406;2024-03-07T00:37:33;28.45;;;21.50;;
2658;SDS011;1339;53.304;10.406;2024-03-07T00:40:01;28.88;;;22.05;;
2658;SDS011;1339;53.304;10.406;2024-03-07T00:42:29;36.40;;;25.58;;
2658;SDS011;1339;53.304;10.406;2024-03-07T00:44:56;36.97;;;25.65;;
2658;SDS011;1339;53.304;10.406;2024-03-07T00:47:23;36.35;;;26.13;;
2658;SDS011;1339;53.304;10.406;2024-03-07T00:49:52;41.67;;;28.13;;
2658;SDS011;1339;53.304;10.406;2024-03-07T00:52:19;36.10;;;25.42;;
2658;SDS011;1339;53.304;10.406;2024-03-07T00:54:46;33.83;;;25.52;;
2658;SDS011;1339;53.304;10.406;2024-03-07T00:57:14;38.90;;;27.58;;
2658;SDS011;1339;53.304;10.406;2024-03-07T00:59:42;31.92;;;24.45;;
2658;SDS011;1339;53.304;10.406;2024-03-07T01:02:09;30.65;;;24.23;;
2658;SDS011;1339;53.304;10.406;2024-03-07T01:04:36;44.40;;;28.23;;
2658;SDS011;1339;53.304;10.406;2024-03-07T01:07:04;36.25;;;25.13;;
2658;SDS011;1339;53.304;10.406;2024-03-07T01:09:32;34.35;;;25.02;;
2658;SDS011;1339;53.304;10.406;2024-03-07T01:12:00;37.10;;;27.65;;
2658;SDS011;1339;53.304;10.406;2024-03-07T01:14:29;36.92;;;27.42;;
2658;SDS011;1339;53.304;10.406;2024-03-07T01:16:57;34.90;;;25.15;;
2658;SDS011;1339;53.304;10.406;2024-03-07T01:19:24;34.65;;;24.25;;
2658;SDS011;1339;53.304;10.406;2024-03-07T01:21:51;37.25;;;26.15;;
2658;SDS011;1339;53.304;10.406;2024-03-07T01:24:20;40.47;;;29.02;;
2658;SDS011;1339;53.304;10.406;2024-03-07T01:26:47;37.97;;;28.10;;
2658;SDS011;1339;53.304;10.406;2024-03-07T01:29:14;36.70;;;27.10;;
2658;SDS011;1339;53.304;10.406;2024-03-07T01:31:42;41.38;;;26.38;;
2658;SDS011;1339;53.304;10.406;2024-03-07T01:34:09;38.08;;;25.50;;
2658;SDS011;1339;53.304;10.406;2024-03-07T01:36:36;35.45;;;26.67;;
2658;SDS011;1339;53.304;10.406;2024-03-07T01:39:03;40.35;;;24.90;;
2658;SDS011;1339;53.304;10.406;2024-03-07T01:41:31;39.05;;;27.50;;
2658;SDS011;1339;53.304;10.406;2024-03-07T01:43:59;34.80;;;22.88;;
2658;SDS011;1339;53.304;10.406;2024-03-07T01:46:27;35.28;;;23.35;;
2658;SDS011;1339;53.304;10.406;2024-03-07T01:48:55;32.80;;;24.15;;
2658;SDS011;1339;53.304;10.406;2024-03-07T01:51:22;39.00;;;26.30;;
2658;SDS011;1339;53.304;10.406;2024-03-07T01:53:49;34.22;;;24.95;;
2658;SDS011;1339;53.304;10.406;2024-03-07T01:56:17;36.85;;;26.60;;
2658;SDS011;1339;53.304;10.406;2024-03-07T01:58:49;37.58;;;24.75;;
2658;SDS011;1339;53.304;10.406;2024-03-07T02:01:16;37.58;;;26.85;;
2658;SDS011;1339;53.304;10.406;2024-03-07T02:03:43;31.23;;;23.52;;
2658;SDS011;1339;53.304;10.406;2024-03-07T02:06:10;32.45;;;23.92;;
2658;SDS011;1339;53.304;10.406;2024-03-07T02:08:38;40.15;;;28.48;;
2658;SDS011;1339;53.304;10.406;2024-03-07T02:11:06;32.55;;;22.92;;
2658;SDS011;1339;53.304;10.406;2024-03-07T02:13:34;33.50;;;23.38;;
2658;SDS011;1339;53.304;10.406;2024-03-07T02:16:02;34.75;;;24.92;;
2658;SDS011;1339;53.304;10.406;2024-03-07T02:18:29;35.45;;;23.90;;
2658;SDS011;1339;53.304;10.406;2024-03-07T02:20:58;41.38;;;27.52;;
2658;SDS011;1339;53.304;10.406;2024-03-07T02:23:25;32.92;;;24.70;;
2658;SDS011;1339;53.304;10.406;2024-03-07T02:25:53;33.95;;;24.20;;
2658;SDS011;1339;53.304;10.406;2024-03-07T02:28:20;31.38;;;22.50;;
2658;SDS011;1339;53.304;10.406;2024-03-07T02:30:47;37.47;;;25.55;;
2658;SDS011;1339;53.304;10.406;2024-03-07T02:33:14;38.35;;;26.85;;
2658;SDS011;1339;53.304;10.406;2024-03-07T02:35:41;29.85;;;22.73;;
2658;SDS011;1339;53.304;10.406;2024-03-07T02:38:10;37.50;;;26.58;;
2658;SDS011;1339;53.304;10.406;2024-03-07T02:40:37;30.08;;;23.30;;
2658;SDS011;1339;53.304;10.406;2024-03-07T02:43:04;37.75;;;26.75;;
2658;SDS011;1339;53.304;10.406;2024-03-07T02:45:32;40.35;;;25.10;;
2658;SDS011;1339;53.304;10.406;2024-03-07T02:47:59;35.15;;;24.23;;
2658;SDS011;1339;53.304;10.406;2024-03-07T02:50:26;39.70;;;23.58;;
2658;SDS011;1339;53.304;10.406;2024-03-07T02:52:53;32.67;;;24.02;;
2658;SDS011;1339;53.304;10.406;2024-03-07T02:55:22;33.80;;;24.63;;
2658;SDS011;1339;53.304;10.406;2024-03-07T02:57:49;37.90;;;22.60;;
2658;SDS011;1339;53.304;10.406;2024-03-07T03:00:17;36.97;;;24.65;;
2658;SDS011;1339;53.304;10.406;2024-03-07T03:02:51;44.15;;;25.65;;
2658;SDS011;1339;53.304;10.406;2024-03-07T03:05:19;37.42;;;22.52;;
2658;SDS011;1339;53.304;10.406;2024-03-07T03:07:46;39.72;;;23.25;;
2658;SDS011;1339;53.304;10.406;2024-03-07T03:10:19;52.13;;;26.10;;
2658;SDS011;1339;53.304;10.406;2024-03-07T03:12:49;36.58;;;23.73;;
2658;SDS011;1339;53.304;10.406;2024-03-07T03:15:16;39.15;;;23.85;;
2658;SDS011;1339;53.304;10.406;2024-03-07T03:17:45;32.47;;;23.85;;
2658;SDS011;1339;53.304;10.406;2024-03-07T03:20:12;37.88;;;22.70;;
2658;SDS011;1339;53.304;10.406;2024-03-07T03:22:49;38.33;;;27.58;;
2658;SDS011;1339;53.304;10.406;2024-03-07T03:25:16;34.92;;;24.35;;
2658;SDS011;1339;53.304;10.406;2024-03-07T03:27:44;39.53;;;24.05;;
2658;SDS011;1339;53.304;10.406;2024-03-07T03:30:13;33.22;;;21.40;;
2658;SDS011;1339;53.304;10.406;2024-03-07T03:32:43;35.90;;;21.20;;
2658;SDS011;1339;53.304;10.406;2024-03-07T03:35:10;29.73;;;22.35;;
2658;SDS011;1339;53.304;10.406;2024-03-07T03:37:38;33.70;;;20.33;;
2658;SDS011;1339;53.304;10.406;2024-03-07T03:40:07;27.77;;;21.10;;
2658;SDS011;1339;53.304;10.406;2024-03-07T03:42:35;34.45;;;22.05;;
2658;SDS011;1339;53.304;10.406;2024-03-07T03:45:02;32.33;;;21.50;;
2658;SDS011;1339;53.304;10.406;2024-03-07T03:47:33;32.13;;;20.20;;
2658;SDS011;1339;53.304;10.406;2024-03-07T03:50:01;28.70;;;19.05;;
2658;SDS011;1339;53.304;10.406;2024-03-07T03:52:28;26.63;;;19.85;;
2658;SDS011;1339;53.304;10.406;2024-03-07T03:54:56;32.83;;;20.63;;
2658;SDS011;1339;53.304;10.406;2024-03-07T03:57:23;35.88;;;20.98;;
2658;SDS011;1339;53.304;10.406;2024-03-07T03:59:50;24.75;;;18.55;;
2658;SDS011;1339;53.304;10.406;2024-03-07T04:02:18;29.83;;;21.75;;
2658;SDS011;1339;53.304;10.406;2024-03-07T04:04:46;27.85;;;19.02;;
2658;SDS011;1339;53.304;10.406;2024-03-07T04:07:13;22.45;;;16.58;;
2658;SDS011;1339;53.304;10.406;2024-03-07T04:09:41;26.10;;;18.98;;
2658;SDS011;1339;53.304;10.406;2024-03-07T04:12:09;25.80;;;18.08;;
2658;SDS011;1339;53.304;10.406;2024-03-07T04:14:36;21.48;;;16.80;;
2658;SDS011;1339;53.304;10.406;2024-03-07T04:17:04;22.05;;;16.70;;
2658;SDS011;1339;53.304;10.406;2024-03-07T04:19:33;27.95;;;16.88;;
2658;SDS011;1339;53.304;10.406;2024-03-07T04:22:01;23.80;;;18.75;;
2658;SDS011;1339;53.304;10.406;2024-03-07T04:24:29;23.73;;;17.10;;
2658;SDS011;1339;53.304;10.406;2024-03-07T04:26:58;22.90;;;15.60;;
2658;SDS011;1339;53.304;10.406;2024-03-07T04:29:25;21.80;;;16.33;;
2658;SDS011;1339;53.304;10.406;2024-03-07T04:31:52;22.55;;;15.95;;
2658;SDS011;1339;53.304;10.406;2024-03-07T04:34:19;21.63;;;17.10;;
2658;SDS011;1339;53.304;10.406;2024-03-07T04:36:47;23.25;;;16.17;;
2658;SDS011;1339;53.304;10.406;2024-03-07T04:39:15;21.42;;;17.13;;
2658;SDS011;1339;53.304;10.406;2024-03-07T04:41:51;28.05;;;18.08;;
2658;SDS011;1339;53.304;10.406;2024-03-07T04:44:18;22.13;;;17.60;;
2658;SDS011;1339;53.304;10.406;2024-03-07T04:46:47;19.10;;;15.13;;
2658;SDS011;1339;53.304;10.406;2024-03-07T04:49:16;23.10;;;18.15;;
2658;SDS011;1339;53.304;10.406;2024-03-07T04:51:43;22.38;;;18.08;;
2658;SDS011;1339;53.304;10.406;2024-03-07T04:54:10;21.23;;;14.32;;
2658;SDS011;1339;53.304;10.406;2024-03-07T04:56:38;22.58;;;16.35;;
2658;SDS011;1339;53.304;10.406;2024-03-07T04:59:06;20.25;;;17.35;;
2658;SDS011;1339;53.304;10.406;2024-03-07T05:01:33;26.20;;;18.48;;
2658;SDS011;1339;53.304;10.406;2024-03-07T05:04:00;25.55;;;19.48;;
2658;SDS011;1339;53.304;10.406;2024-03-07T05:06:28;24.27;;;16.60;;
2658;SDS011;1339;53.304;10.406;2024-03-07T05:08:58;20.15;;;15.60;;
2658;SDS011;1339;53.304;10.406;2024-03-07T05:11:26;34.13;;;24.45;;
2658;SDS011;1339;53.304;10.406;2024-03-07T05:13:54;25.80;;;18.42;;
2658;SDS011;1339;53.304;10.406;2024-03-07T05:16:22;27.80;;;17.98;;
2658;SDS011;1339;53.304;10.406;2024-03-07T05:18:49;20.60;;;16.73;;
2658;SDS011;1339;53.304;10.406;2024-03-07T05:21:17;24.10;;;18.48;;
2658;SDS011;1339;53.304;10.406;2024-03-07T05:24:01;22.95;;;17.08;;
2658;SDS011;1339;53.304;10.406;2024-03-07T05:26:29;21.35;;;16.48;;
2658;SDS011;1339;53.304;10.406;2024-03-07T05:29:00;18.00;;;15.23;;
2658;SDS011;1339;53.304;10.406;2024-03-07T05:31:30;25.05;;;18.60;;
2658;SDS011;1339;53.304;10.406;2024-03-07T05:33:59;20.75;;;15.68;;
2658;SDS011;1339;53.304;10.406;2024-03-07T05:36:28;23.05;;;17.67;;
2658;SDS011;1339;53.304;10.406;2024-03-07T05:38:55;23.25;;;15.55;;
2658;SDS011;1339;53.304;10.406;2024-03-07T05:41:23;24.15;;;16.90;;
2658;SDS011;1339;53.304;10.406;2024-03-07T05:43:54;21.75;;;17.15;;
2658;SDS011;1339;53.304;10.406;2024-03-07T05:46:23;20.77;;;15.95;;
2658;SDS011;1339;53.304;10.406;2024-03-07T05:48:50;19.48;;;14.55;;
2658;SDS011;1339;53.304;10.406;2024-03-07T05:51:21;19.10;;;13.60;;
2658;SDS011;1339;53.304;10.406;2024-03-07T05:53:49;22.45;;;16.98;;
2658;SDS011;1339;53.304;10.406;2024-03-07T05:56:16;22.35;;;16.45;;
2658;SDS011;1339;53.304;10.406;2024-03-07T05:58:43;17.70;;;14.48;;
2658;SDS011;1339;53.304;10.406;2024-03-07T06:01:10;19.52;;;16.17;;
2658;SDS011;1339;53.304;10.406;2024-03-07T06:03:39;20.60;;;16.10;;
2658;SDS011;1339;53.304;10.406;2024-03-07T06:06:06;21.30;;;16.13;;
2658;SDS011;1339;53.304;10.406;2024-03-07T06:08:36;17.95;;;14.90;;
2658;SDS011;1339;53.304;10.406;2024-03-07T06:11:07;22.45;;;16.50;;
2658;SDS011;1339;53.304;10.406;2024-03-07T06:13:34;19.63;;;15.38;;
2658;SDS011;1339;53.304;10.406;2024-03-07T06:16:01;19.42;;;14.43;;
2658;SDS011;1339;53.304;10.406;2024-03-07T06:18:32;20.77;;;14.73;;
2658;SDS011;1339;53.304;10.406;2024-03-07T06:21:01;22.52;;;15.13;;
2658;SDS011;1339;53.304;10.406;2024-03-07T06:23:29;17.33;;;15.15;;
2658;SDS011;1339;53.304;10.406;2024-03-07T06:25:57;25.08;;;15.32;;
2658;SDS011;1339;53.304;10.406;2024-03-07T06:28:25;23.30;;;17.42;;
2658;SDS011;1339;53.304;10.406;2024-03-07T06:30:54;16.98;;;13.27;;
2658;SDS011;1339;53.304;10.406;2024-03-07T06:33:21;26.65;;;15.00;;
2658;SDS011;1339;53.304;10.406;2024-03-07T06:35:50;18.20;;;14.80;;
2658;SDS011;1339;53.304;10.406;2024-03-07T06:38:19;22.90;;;15.05;;
2658;SDS011;1339;53.304;10.406;2024-03-07T06:40:47;21.73;;;14.57;;
2658;SDS011;1339;53.304;10.406;2024-03-07T06:43:17;18.10;;;13.98;;
2658;SDS011;1339;53.304;10.406;2024-03-07T06:45:45;22.88;;;14.95;;
2658;SDS011;1339;53.304;10.406;2024-03-07T06:48:12;17.00;;;13.35;;
2658;SDS011;1339;53.304;10.406;2024-03-07T06:50:39;20.20;;;15.02;;
2658;SDS011;1339;53.304;10.406;2024-03-07T06:53:08;19.58;;;14.50;;
2658;SDS011;1339;53.304;10.406;2024-03-07T06:55:36;20.80;;;14.38;;
2658;SDS011;1339;53.304;10.406;2024-03-07T06:58:04;18.38;;;15.10;;
2658;SDS011;1339;53.304;10.406;2024-03-07T07:00:31;19.10;;;14.75;;
2658;SDS011;1339;53.304;10.406;2024-03-07T07:03:00;20.10;;;14.20;;
2658;SDS011;1339;53.304;10.406;2024-03-07T07:05:29;18.92;;;14.57;;
2658;SDS011;1339;53.304;10.406;2024-03-07T07:07:58;16.73;;;13.73;;
2658;SDS011;1339;53.304;10.406;2024-03-07T07:10:26;15.48;;;13.85;;
2658;SDS011;1339;53.304;10.406;2024-03-07T07:12:54;18.05;;;13.77;;
2658;SDS011;1339;53.304;10.406;2024-03-07T07:15:22;18.40;;;14.05;;
2658;SDS011;1339;53.304;10.406;2024-03-07T07:17:49;20.80;;;14.68;;
2658;SDS011;1339;53.304;10.406;2024-03-07T07:20:17;20.20;;;13.40;;
2658;SDS011;1339;53.304;10.406;2024-03-07T07:22:45;19.27;;;13.45;;
2658;SDS011;1339;53.304;10.406;2024-03-07T07:25:13;20.38;;;13.48;;
2658;SDS011;1339;53.304;10.406;2024-03-07T07:27:41;17.85;;;13.82;;
2658;SDS011;1339;53.304;10.406;2024-03-07T07:30:10;19.20;;;13.02;;
2658;SDS011;1339;53.304;10.406;2024-03-07T07:32:38;18.60;;;14.18;;
2658;SDS011;1339;53.304;10.406;2024-03-07T07:35:05;22.13;;;15.35;;
2658;SDS011;1339;53.304;10.406;2024-03-07T07:37:36;17.75;;;13.30;;
2658;SDS011;1339;53.304;10.406;2024-03-07T07:40:03;21.63;;;15.05;;
2658;SDS011;1339;53.304;10.406;2024-03-07T07:42:33;18.02;;;13.98;;
2658;SDS011;1339;53.304;10.406;2024-03-07T07:45:03;19.60;;;14.15;;
2658;SDS011;1339;53.304;10.406;2024-03-07T07:47:32;18.55;;;14.15;;
2658;SDS011;1339;53.304;10.406;2024-03-07T07:50:02;16.92;;;13.70;;
2658;SDS011;1339;53.304;10.406;2024-03-07T07:52:32;19.77;;;15.02;;
2658;SDS011;1339;53.304;10.406;2024-03-07T07:55:00;18.70;;;14.93;;
2658;SDS011;1339;53.304;10.406;2024-03-07T07:57:27;19.17;;;14.00;;
2658;SDS011;1339;53.304;10.406;2024-03-07T07:59:54;21.98;;;15.07;;
2658;SDS011;1339;53.304;10.406;2024-03-07T08:02:21;17.65;;;13.60;;
2658;SDS011;1339;53.304;10.406;2024-03-07T08:04:50;19.90;;;13.88;;
2658;SDS011;1339;53.304;10.406;2024-03-07T08:07:18;17.85;;;13.45;;
2658;SDS011;1339;53.304;10.406;2024-03-07T08:09:45;19.27;;;14.50;;
2658;SDS011;1339;53.304;10.406;2024-03-07T08:12:12;16.60;;;13.77;;
2658;SDS011;1339;53.304;10.406;2024-03-07T08:14:39;18.00;;;14.00;;
2658;SDS011;1339;53.304;10.406;2024-03-07T08:17:06;20.83;;;13.95;;
2658;SDS011;1339;53.304;10.406;2024-03-07T08:19:33;18.67;;;14.30;;
2658;SDS011;1339;53.304;10.406;2024-03-07T08:22:02;16.70;;;13.85;;
2658;SDS011;1339;53.304;10.406;2024-03-07T08:24:29;20.58;;;15.48;;
2658;SDS011;1339;53.304;10.406;2024-03-07T08:26:57;17.95;;;14.00;;
2658;SDS011;1339;53.304;10.406;2024-03-07T08:29:24;18.35;;;13.90;;
2658;SDS011;1339;53.304;10.406;2024-03-07T08:31:51;18.63;;;13.82;;
2658;SDS011;1339;53.304;10.406;2024-03-07T08:34:18;18.73;;;13.60;;
2658;SDS011;1339;53.304;10.406;2024-03-07T08:36:45;16.02;;;12.00;;
2658;SDS011;1339;53.304;10.406;2024-03-07T08:39:14;14.93;;;13.32;;
2658;SDS011;1339;53.304;10.406;2024-03-07T08:41:44;20.60;;;13.48;;
2658;SDS011;1339;53.304;10.406;2024-03-07T08:44:11;16.00;;;13.50;;
2658;SDS011;1339;53.304;10.406;2024-03-07T08:46:39;17.00;;;14.30;;
2658;SDS011;1339;53.304;10.406;2024-03-07T08:49:06;20.95;;;13.10;;
2658;SDS011;1339;53.304;10.406;2024-03-07T08:51:36;14.57;;;12.00;;
2658;SDS011;1339;53.304;10.406;2024-03-07T08:54:03;16.27;;;12.40;;
2658;SDS011;1339;53.304;10.406;2024-03-07T08:56:32;17.60;;;12.70;;
2658;SDS011;1339;53.304;10.406;2024-03-07T08:58:59;17.60;;;13.13;;
2658;SDS011;1339;53.304;10.406;2024-03-07T09:01:27;16.42;;;12.05;;
2658;SDS011;1339;53.304;10.406;2024-03-07T09:03:54;20.92;;;14.75;;
2658;SDS011;1339;53.304;10.406;2024-03-07T09:06:23;18.83;;;14.30;;
2658;SDS011;1339;53.304;10.406;2024-03-07T09:08:50;16.48;;;12.80;;
2658;SDS011;1339;53.304;10.406;2024-03-07T09:11:17;17.48;;;13.25;;
2658;SDS011;1339;53.304;10.406;2024-03-07T09:13:46;16.73;;;14.73;;
2658;SDS011;1339;53.304;10.406;2024-03-07T09:16:14;20.80;;;14.90;;
2658;SDS011;1339;53.304;10.406;2024-03-07T09:18:42;24.50;;;16.02;;
2658;SDS011;1339;53.304;10.406;2024-03-07T09:21:12;24.45;;;16.27;;
2658;SDS011;1339;53.304;10.406;2024-03-07T09:23:40;20.13;;;14.48;;
2658;SDS011;1339;53.304;10.406;2024-03-07T09:26:07;17.10;;;15.18;;
2658;SDS011;1339;53.304;10.406;2024-03-07T09:28:34;23.63;;;16.42;;
2658;SDS011;1339;53.304;10.406;2024-03-07T09:31:03;23.42;;;16.27;;
2658;SDS011;1339;53.304;10.406;2024-03-07T09:33:30;21.90;;;15.88;;
2658;SDS011;1339;53.304;10.406;2024-03-07T09:35:57;19.73;;;15.32;;
2658;SDS011;1339;53.304;10.406;2024-03-07T09:38:24;22.02;;;15.95;;
2658;SDS011;1339;53.304;10.406;2024-03-07T09:40:52;23.00;;;17.23;;
2658;SDS011;1339;53.304;10.406;2024-03-07T09:43:20;20.90;;;15.50;;
2658;SDS011;1339;53.304;10.406;2024-03-07T09:45:48;19.15;;;15.75;;
2658;SDS011;1339;53.304;10.406;2024-03-07T09:48:16;21.77;;;16.05;;
2658;SDS011;1339;53.304;10.406;2024-03-07T09:50:44;22.48;;;15.60;;
2658;SDS011;1339;53.304;10.406;2024-03-07T09:53:12;18.35;;;15.05;;
2658;SDS011;1339;53.304;10.406;2024-03-07T09:55:40;19.75;;;16.17;;
2658;SDS011;1339;53.304;10.406;2024-03-07T09:58:07;21.42;;;15.40;;
2658;SDS011;1339;53.304;10.406;2024-03-07T10:00:35;20.38;;;15.95;;
2658;SDS011;1339;53.304;10.406;2024-03-07T10:03:06;21.48;;;15.32;;
2658;SDS011;1339;53.304;10.406;2024-03-07T10:05:36;22.17;;;16.60;;
2658;SDS011;1339;53.304;10.406;2024-03-07T10:08:04;21.50;;;16.92;;
2658;SDS011;1339;53.304;10.406;2024-03-07T10:10:32;19.80;;;15.52;;
2658;SDS011;1339;53.304;10.406;2024-03-07T10:12:59;19.55;;;17.42;;
2658;SDS011;1339;53.304;10.406;2024-03-07T10:15:28;20.63;;;14.88;;
2658;SDS011;1339;53.304;10.406;2024-03-07T10:17:58;21.95;;;15.40;;
2658;SDS011;1339;53.304;10.406;2024-03-07T10:20:25;21.90;;;16.77;;
2658;SDS011;1339;53.304;10.406;2024-03-07T10:22:54;19.15;;;15.35;;
2658;SDS011;1339;53.304;10.406;2024-03-07T10:25:21;25.55;;;17.25;;
2658;SDS011;1339;53.304;10.406;2024-03-07T10:27:50;20.25;;;15.00;;
2658;SDS011;1339;53.304;10.406;2024-03-07T10:30:17;28.30;;;19.48;;
2658;SDS011;1339;53.304;10.406;2024-03-07T10:32:46;21.90;;;16.60;;
2658;SDS011;1339;53.304;10.406;2024-03-07T10:35:19;24.10;;;16.10;;
2658;SDS011;1339;53.304;10.406;2024-03-07T10:37:49;22.80;;;17.65;;
2658;SDS011;1339;53.304;10.406;2024-03-07T10:40:17;18.90;;;15.27;;
2658;SDS011;1339;53.304;10.406;2024-03-07T10:42:46;19.50;;;15.45;;
2658;SDS011;1339;53.304;10.406;2024-03-07T10:45:17;22.48;;;15.57;;
2658;SDS011;1339;53.304;10.406;2024-03-07T10:47:47;21.02;;;13.77;;
2658;SDS011;1339;53.304;10.406;2024-03-07T10:50:17;26.02;;;16.70;;
2658;SDS011;1339;53.304;10.406;2024-03-07T10:52:48;19.00;;;16.60;;
2658;SDS011;1339;53.304;10.406;2024-03-07T10:55:22;19.85;;;15.63;;
2658;SDS011;1339;53.304;10.406;2024-03-07T10:57:52;20.95;;;16.00;;
2658;SDS011;1339;53.304;10.406;2024-03-07T11:00:22;21.42;;;16.10;;
2658;SDS011;1339;53.304;10.406;2024-03-07T11:02:55;20.98;;;15.88;;
2658;SDS011;1339;53.304;10.406;2024-03-07T11:05:24;21.60;;;17.75;;
2658;SDS011;1339;53.304;10.406;2024-03-07T11:07:55;23.48;;;17.60;;
2658;SDS011;1339;53.304;10.406;2024-03-07T11:10:24;21.25;;;15.85;;
2658;SDS011;1339;53.304;10.406;2024-03-07T11:12:51;17.83;;;15.60;;
2658;SDS011;1339;53.304;10.406;2024-03-07T11:15:18;21.48;;;17.20;;
2658;SDS011;1339;53.304;10.406;2024-03-07T11:17:46;22.63;;;16.63;;
2658;SDS011;1339;53.304;10.406;2024-03-07T11:20:21;21.10;;;16.20;;
2658;SDS011;1339;53.304;10.406;2024-03-07T11:22:48;20.90;;;17.58;;
2658;SDS011;1339;53.304;10.406;2024-03-07T11:25:17;24.58;;;17.75;;
2658;SDS011;1339;53.304;10.406;2024-03-07T11:27:52;20.63;;;15.82;;
2658;SDS011;1339;53.304;10.406;2024-03-07T11:30:20;25.92;;;17.88;;
2658;SDS011;1339;53.304;10.406;2024-03-07T11:32:48;23.13;;;17.63;;
2658;SDS011;1339;53.304;10.406;2024-03-07T11:35:18;18.33;;;15.73;;
2658;SDS011;1339;53.304;10.406;2024-03-07T11:37:55;30.33;;;18.85;;
2658;SDS011;1339;53.304;10.406;2024-03-07T11:43:10;23.13;;;17.98;;
2658;SDS011;1339;53.304;10.406;2024-03-07T11:45:38;24.20;;;17.15;;
2658;SDS011;1339;53.304;10.406;2024-03-07T11:48:10;24.40;;;18.35;;
2658;SDS011;1339;53.304;10.406;2024-03-07T11:50:37;22.98;;;17.20;;
2658;SDS011;1339;53.304;10.406;2024-03-07T11:53:05;23.45;;;17.90;;
2658;SDS011;1339;53.304;10.406;2024-03-07T11:55:32;23.88;;;17.58;;
2658;SDS011;1339;53.304;10.406;2024-03-07T11:58:06;24.48;;;16.88;;
2658;SDS011;1339;53.304;10.406;2024-03-07T12:00:36;22.10;;;17.40;;
2658;SDS011;1339;53.304;10.406;2024-03-07T12:03:07;25.20;;;18.65;;
2658;SDS011;1339;53.304;10.406;2024-03-07T12:05:38;21.60;;;18.50;;
2658;SDS011;1339;53.304;10.406;2024-03-07T12:08:06;23.25;;;17.90;;
2658;SDS011;1339;53.304;10.406;2024-03-07T12:10:35;22.13;;;17.20;;
2658;SDS011;1339;53.304;10.406;2024-03-07T12:13:04;21.08;;;18.35;;
2658;SDS011;1339;53.304;10.406;2024-03-07T12:15:31;26.85;;;17.58;;
2658;SDS011;1339;53.304;10.406;2024-03-07T12:18:01;20.77;;;18.48;;
2658;SDS011;1339;53.304;10.406;2024-03-07T12:20:33;27.33;;;19.30;;
2658;SDS011;1339;53.304;10.406;2024-03-07T12:23:00;25.27;;;18.70;;
2658;SDS011;1339;53.304;10.406;2024-03-07T12:25:28;22.25;;;16.48;;
2658;SDS011;1339;53.304;10.406;2024-03-07T12:28:02;26.90;;;19.08;;
2658;SDS011;1339;53.304;10.406;2024-03-07T12:30:31;24.92;;;18.95;;
2658;SDS011;1339;53.304;10.406;2024-03-07T12:33:00;19.27;;;17.20;;
2658;SDS011;1339;53.304;10.406;2024-03-07T12:35:30;21.92;;;17.65;;
2658;SDS011;1339;53.304;10.406;2024-03-07T12:37:57;22.77;;;17.63;;
2658;SDS011;1339;53.304;10.406;2024-03-07T12:40:25;26.65;;;17.45;;
2658;SDS011;1339;53.304;10.406;2024-03-07T12:42:54;21.52;;;17.63;;
2658;SDS011;1339;53.304;10.406;2024-03-07T12:45:22;20.55;;;16.23;;
2658;SDS011;1339;53.304;10.406;2024-03-07T12:47:51;20.60;;;17.23;;
2658;SDS011;1339;53.304;10.406;2024-03-07T12:50:20;23.25;;;18.13;;
2658;SDS011;1339;53.304;10.406;2024-03-07T12:52:48;22.58;;;16.98;;
2658;SDS011;1339;53.304;10.406;2024-03-07T12:55:16;25.98;;;19.90;;
2658;SDS011;1339;53.304;10.406;2024-03-07T12:57:46;28.48;;;21.38;;
2658;SDS011;1339;53.304;10.406;2024-03-07T13:00:15;21.05;;;18.02;;
2658;SDS011;1339;53.304;10.406;2024-03-07T13:02:48;21.83;;;17.40;;
2658;SDS011;1339;53.304;10.406;2024-03-07T13:05:15;20.60;;;15.70;;
2658;SDS011;1339;53.304;10.406;2024-03-07T13:07:48;18.30;;;16.23;;
2658;SDS011;1339;53.304;10.406;2024-03-07T13:10:15;19.88;;;17.58;;
2658;SDS011;1339;53.304;10.406;2024-03-07T13:12:44;22.63;;;16.45;;
2658;SDS011;1339;53.304;10.406;2024-03-07T13:15:14;21.15;;;17.15;;
2658;SDS011;1339;53.304;10.406;2024-03-07T13:17:41;21.25;;;18.77;;
2658;SDS011;1339;53.304;10.406;2024-03-07T13:20:08;20.00;;;16.95;;
2658;SDS011;1339;53.304;10.406;2024-03-07T13:22:38;24.42;;;18.13;;
2658;SDS011;1339;53.304;10.406;2024-03-07T13:25:09;20.60;;;17.35;;
2658;SDS011;1339;53.304;10.406;2024-03-07T13:27:41;19.75;;;17.00;;
2658;SDS011;1339;53.304;10.406;2024-03-07T13:30:09;25.50;;;16.95;;
2658;SDS011;1339;53.304;10.406;2024-03-07T13:32:47;21.00;;;17.48;;
2658;SDS011;1339;53.304;10.406;2024-03-07T13:35:15;21.42;;;16.52;;
2658;SDS011;1339;53.304;10.406;2024-03-07T13:37:44;22.80;;;19.55;;
2658;SDS011;1339;53.304;10.406;2024-03-07T13:40:14;26.60;;;18.92;;
2658;SDS011;1339;53.304;10.406;2024-03-07T13:42:51;19.55;;;16.00;;
2658;SDS011;1339;53.304;10.406;2024-03-07T13:45:19;19.52;;;17.08;;
2658;SDS011;1339;53.304;10.406;2024-03-07T13:47:47;21.65;;;16.88;;
2658;SDS011;1339;53.304;10.406;2024-03-07T13:50:15;18.42;;;16.30;;
2658;SDS011;1339;53.304;10.406;2024-03-07T13:52:45;20.48;;;16.65;;
2658;SDS011;1339;53.304;10.406;2024-03-07T13:55:31;19.95;;;16.73;;
2658;SDS011;1339;53.304;10.406;2024-03-07T13:58:01;18.20;;;15.50;;
2658;SDS011;1339;53.304;10.406;2024-03-07T14:00:33;17.95;;;16.15;;
2658;SDS011;1339;53.304;10.406;2024-03-07T14:03:26;17.70;;;15.63;;
2658;SDS011;1339;53.304;10.406;2024-03-07T14:06:02;20.55;;;16.58;;
2658;SDS011;1339;53.304;10.406;2024-03-07T14:14:20;18.73;;;14.00;;
2658;SDS011;1339;53.304;10.406;2024-03-07T14:17:11;18.08;;;15.32;;
2658;SDS011;1339;53.304;10.406;2024-03-07T14:22:40;16.55;;;13.15;;
2658;SDS011;1339;53.304;10.406;2024-03-07T14:25:34;17.67;;;14.23;;
2658;SDS011;1339;53.304;10.406;2024-03-07T14:28:12;18.00;;;13.77;;
2658;SDS011;1339;53.304;10.406;2024-03-07T14:30:43;18.70;;;15.13;;
2658;SDS011;1339;53.304;10.406;2024-03-07T14:33:16;21.48;;;14.32;;
2658;SDS011;1339;53.304;10.406;2024-03-07T14:38:39;17.17;;;14.60;;
2658;SDS011;1339;53.304;10.406;2024-03-07T14:41:08;20.27;;;14.52;;
2658;SDS011;1339;53.304;10.406;2024-03-07T14:43:37;16.90;;;13.98;;
2658;SDS011;1339;53.304;10.406;2024-03-07T14:46:07;17.13;;;14.23;;
2658;SDS011;1339;53.304;10.406;2024-03-07T14:48:37;16.35;;;12.93;;
2658;SDS011;1339;53.304;10.406;2024-03-07T14:51:05;16.48;;;13.75;;
2658;SDS011;1339;53.304;10.406;2024-03-07T14:53:34;14.68;;;13.00;;
2658;SDS011;1339;53.304;10.406;2024-03-07T14:56:02;15.80;;;13.98;;